Terminal Aerodrome Forecast
Issued by NWS Grand Forks, ND

Home | Current Version | Previous Version | Text Only | Print | Product List | Glossary On
Versions: 1 2 3 4 5 6 7 8 9 10 11 12 13 14 15 16 17 18
000
FTUS43 KFGF 222300
TAFGFK
TAF
KGFK 222320Z 2300/2324 36008KT P6SM BKN040
      TEMPO 2300/2302 BKN025
     FM230600 01007KT P6SM OVC020
      TEMPO 2310/2313 3SM BR OVC015=

USA.gov is the U.S. government's official web portal to all federal, state and local government web resources and services.